createdAt,value
2022-09-26T00:01:07.978Z,15.02
2022-09-26T00:03:35.063Z,15.01
2022-09-26T00:06:03.686Z,14.98
2022-09-26T00:08:30.530Z,14.99
2022-09-26T00:10:58.949Z,14.98
2022-09-26T00:13:26.101Z,14.99
2022-09-26T00:15:54.111Z,15.01
2022-09-26T00:18:20.997Z,15.03
2022-09-26T00:20:47.740Z,15.01
2022-09-26T00:23:14.511Z,15.01
2022-09-26T00:25:47.872Z,15.04
2022-09-26T00:28:14.771Z,15.05
2022-09-26T00:30:42.262Z,15.04
2022-09-26T00:33:08.870Z,15.03
2022-09-26T00:35:35.514Z,15.05
2022-09-26T00:38:02.361Z,15.04
2022-09-26T00:40:29.058Z,15.01
2022-09-26T00:42:55.975Z,15.01
2022-09-26T00:45:26.053Z,14.98
2022-09-26T00:47:59.731Z,15.00
2022-09-26T00:50:32.646Z,15.02
2022-09-26T00:53:02.675Z,15.04
2022-09-26T00:55:32.314Z,14.99
2022-09-26T00:58:04.523Z,15.03
2022-09-26T01:00:31.419Z,15.05
2022-09-26T01:02:58.451Z,15.05
2022-09-26T01:05:25.346Z,15.08
2022-09-26T01:07:53.567Z,15.05
2022-09-26T01:10:20.382Z,15.07
2022-09-26T01:12:47.759Z,15.07
2022-09-26T01:15:14.382Z,15.07
2022-09-26T01:17:42.845Z,15.08
2022-09-26T01:20:21.788Z,15.09
2022-09-26T01:22:48.358Z,15.10
2022-09-26T01:25:18.558Z,15.10
2022-09-26T01:28:07.030Z,15.12
2022-09-26T01:30:41.881Z,15.13
2022-09-26T01:33:16.984Z,15.13
2022-09-26T01:35:47.297Z,15.13
2022-09-26T01:38:26.692Z,15.13
2022-09-26T01:41:12.952Z,15.13
2022-09-26T01:43:50.913Z,15.14
2022-09-26T01:46:17.648Z,15.14
2022-09-26T01:48:48.458Z,15.18
2022-09-26T01:51:20.188Z,15.15
2022-09-26T01:53:53.786Z,15.17
2022-09-26T01:56:22.306Z,15.18
2022-09-26T01:58:55.132Z,15.17
2022-09-26T02:01:22.490Z,15.19
2022-09-26T02:03:52.191Z,15.19
2022-09-26T02:06:22.576Z,15.18
2022-09-26T02:09:02.611Z,15.14
2022-09-26T02:11:29.634Z,15.15
2022-09-26T02:13:56.349Z,15.12
2022-09-26T02:16:26.255Z,15.10
2022-09-26T02:19:15.401Z,15.10
2022-09-26T02:21:43.790Z,15.11
2022-09-26T02:24:11.342Z,15.12
2022-09-26T02:26:38.076Z,15.13
2022-09-26T02:29:05.382Z,15.14
2022-09-26T02:31:35.638Z,15.11
2022-09-26T02:34:04.483Z,15.12
2022-09-26T02:36:34.567Z,15.13
2022-09-26T02:39:02.654Z,15.12
2022-09-26T02:41:47.386Z,15.12
2022-09-26T02:44:21.003Z,15.11
2022-09-26T02:46:59.887Z,15.14
2022-09-26T02:49:35.484Z,15.13
2022-09-26T02:52:03.073Z,15.14
2022-09-26T02:54:39.641Z,15.11
2022-09-26T02:57:23.630Z,15.09
2022-09-26T02:59:57.694Z,15.06
2022-09-26T03:02:43.767Z,15.02
2022-09-26T03:05:20.573Z,15.00
2022-09-26T03:07:56.717Z,14.98
2022-09-26T03:10:26.671Z,14.98
2022-09-26T03:12:54.309Z,14.95
2022-09-26T03:15:21.844Z,14.94
2022-09-26T03:17:51.632Z,14.93
2022-09-26T03:20:20.009Z,14.88
2022-09-26T03:22:47.462Z,14.85
2022-09-26T03:25:20.113Z,14.81
2022-09-26T03:27:57.285Z,14.81
2022-09-26T03:30:24.080Z,14.82
2022-09-26T03:33:10.619Z,14.84
2022-09-26T03:35:38.009Z,14.81
2022-09-26T03:38:04.652Z,14.78
2022-09-26T03:40:36.410Z,14.76
2022-09-26T03:43:24.379Z,14.80
2022-09-26T03:45:52.979Z,14.78
2022-09-26T03:48:24.055Z,14.81
2022-09-26T03:50:50.805Z,14.78
2022-09-26T03:53:17.401Z,14.72
2022-09-26T03:55:44.002Z,14.67
2022-09-26T03:58:10.707Z,14.58
2022-09-26T04:00:39.659Z,14.56
2022-09-26T04:03:07.359Z,14.57
2022-09-26T04:05:38.326Z,14.48
2022-09-26T04:08:06.860Z,14.44
2022-09-26T04:10:34.927Z,14.43
2022-09-26T04:13:01.554Z,14.47
2022-09-26T04:15:29.904Z,14.49
2022-09-26T04:18:04.712Z,14.52
2022-09-26T04:20:32.124Z,14.55
2022-09-26T04:22:59.799Z,14.58
2022-09-26T04:25:26.571Z,14.61
2022-09-26T04:27:53.350Z,14.58
2022-09-26T04:30:21.684Z,14.53
2022-09-26T04:32:54.112Z,14.55
2022-09-26T04:35:43.601Z,14.54
2022-09-26T04:38:10.553Z,14.51
2022-09-26T04:40:42.535Z,14.51
2022-09-26T04:43:10.337Z,14.48
2022-09-26T04:45:40.394Z,14.47
2022-09-26T04:48:07.957Z,14.48
2022-09-26T04:50:40.562Z,14.49
2022-09-26T04:53:11.027Z,14.49
2022-09-26T04:55:56.802Z,14.50
2022-09-26T04:58:23.467Z,14.50
2022-09-26T05:00:52.594Z,14.48
2022-09-26T05:03:32.922Z,14.50
2022-09-26T05:06:00.349Z,14.53
2022-09-26T05:08:27.540Z,14.53
2022-09-26T05:10:55.155Z,14.54
2022-09-26T05:13:25.866Z,14.53
2022-09-26T05:15:55.968Z,14.52
2022-09-26T05:18:24.545Z,14.51
2022-09-26T05:20:51.381Z,14.52
2022-09-26T05:23:43.663Z,14.50
2022-09-26T05:27:58.371Z,14.42
2022-09-26T05:30:31.340Z,14.50
2022-09-26T05:33:22.703Z,14.50
2022-09-26T05:35:55.035Z,14.49
2022-09-26T05:38:22.026Z,14.45
2022-09-26T05:40:56.598Z,14.47
2022-09-26T05:43:24.742Z,14.52
2022-09-26T05:45:51.472Z,14.56
2022-09-26T05:48:24.552Z,14.59
2022-09-26T05:50:51.791Z,14.61
2022-09-26T05:53:19.953Z,14.66
2022-09-26T05:55:51.623Z,14.69
2022-09-26T05:58:49.581Z,14.74
2022-09-26T06:01:18.966Z,14.79
2022-09-26T06:03:48.980Z,14.81
2022-09-26T06:06:23.642Z,14.82
2022-09-26T06:08:55.605Z,14.86
2022-09-26T06:11:31.887Z,14.92
2022-09-26T06:14:00.935Z,14.90
2022-09-26T06:16:28.202Z,14.92
2022-09-26T06:18:55.934Z,14.97
2022-09-26T06:21:23.658Z,15.00
2022-09-26T06:23:54.640Z,15.02
2022-09-26T06:26:23.681Z,14.92
2022-09-26T06:29:00.405Z,14.99
2022-09-26T06:31:30.142Z,15.01
2022-09-26T06:34:20.157Z,15.07
2022-09-26T06:36:53.206Z,15.08
2022-09-26T06:39:19.825Z,14.98
2022-09-26T06:41:47.277Z,15.01
2022-09-26T06:44:32.868Z,15.05
2022-09-26T06:47:29.121Z,15.11
2022-09-26T06:50:24.858Z,15.14
2022-09-26T06:52:55.047Z,15.19
2022-09-26T06:55:24.195Z,15.23
2022-09-26T06:57:50.961Z,15.26
2022-09-26T07:00:18.661Z,15.34
2022-09-26T07:03:17.669Z,15.39
2022-09-26T07:05:59.313Z,15.42
2022-09-26T07:08:50.477Z,15.44
2022-09-26T07:11:35.013Z,15.43
2022-09-26T07:14:02.414Z,15.54
2022-09-26T07:16:29.800Z,15.66
2022-09-26T07:19:17.051Z,15.75
2022-09-26T07:22:06.800Z,15.85
2022-09-26T07:24:46.424Z,15.91
2022-09-26T07:27:16.847Z,15.95
2022-09-26T07:29:49.215Z,15.92
2022-09-26T07:32:18.939Z,15.98
2022-09-26T07:34:59.361Z,15.93
2022-09-26T07:37:26.875Z,15.81
2022-09-26T07:40:00.672Z,15.90
2022-09-26T07:42:30.144Z,15.93
2022-09-26T07:48:02.419Z,16.30
2022-09-26T07:50:47.327Z,16.67
2022-09-26T07:53:24.308Z,16.90
2022-09-26T07:56:12.815Z,17.17
2022-09-26T07:58:58.136Z,17.39
2022-09-26T08:01:40.752Z,17.56
2022-09-26T08:04:36.519Z,17.53
2022-09-26T08:07:03.218Z,17.48
2022-09-26T08:09:31.372Z,17.58
2022-09-26T08:12:27.123Z,17.80
2022-09-26T08:15:09.750Z,18.23
2022-09-26T08:17:41.153Z,18.45
2022-09-26T08:20:08.043Z,18.49
2022-09-26T08:22:35.088Z,18.88
2022-09-26T08:25:06.624Z,19.47
2022-09-26T08:27:53.204Z,19.75
2022-09-26T08:30:20.175Z,19.54
2022-09-26T08:32:54.812Z,19.27
2022-09-26T08:35:21.457Z,19.19
2022-09-26T08:38:09.327Z,19.16
2022-09-26T08:40:45.969Z,19.36
2022-09-26T08:43:33.815Z,19.39
2022-09-26T08:46:37.396Z,19.84
2022-09-26T08:49:24.949Z,19.90
2022-09-26T08:51:53.683Z,19.85
2022-09-26T08:54:40.871Z,19.85
2022-09-26T08:57:26.068Z,19.91
2022-09-26T08:59:53.567Z,20.01
2022-09-26T09:02:21.159Z,19.97
2022-09-26T09:05:04.565Z,19.70
2022-09-26T09:07:34.581Z,19.23
2022-09-26T09:10:04.845Z,19.13
2022-09-26T09:13:04.289Z,19.16
2022-09-26T09:15:52.912Z,18.97
2022-09-26T09:19:02.455Z,19.10
2022-09-26T09:21:52.796Z,18.72
2022-09-26T09:24:36.908Z,18.52
2022-09-26T09:30:16.915Z,18.93
2022-09-26T09:32:56.212Z,19.55
2022-09-26T09:35:55.237Z,20.18
2022-09-26T09:38:39.026Z,20.47
2022-09-26T09:41:25.008Z,20.68
2022-09-26T09:44:00.720Z,20.67
2022-09-26T09:46:33.647Z,20.62
2022-09-26T09:49:09.531Z,20.68
2022-09-26T09:51:57.787Z,20.62
2022-09-26T09:54:44.351Z,20.47
2022-09-26T09:57:29.802Z,20.52
2022-09-26T10:00:08.621Z,20.38
2022-09-26T10:03:02.740Z,20.22
2022-09-26T10:05:35.330Z,20.25
2022-09-26T10:08:04.568Z,20.23
2022-09-26T10:11:01.905Z,20.45
2022-09-26T10:13:56.065Z,20.40
2022-09-26T10:16:35.875Z,20.56
2022-09-26T10:19:09.035Z,20.72
2022-09-26T10:21:43.704Z,20.73
2022-09-26T10:24:27.532Z,20.65
2022-09-26T10:27:14.821Z,20.49
2022-09-26T10:29:44.141Z,20.35
2022-09-26T10:32:11.551Z,20.16
2022-09-26T10:34:41.510Z,20.09
2022-09-26T10:37:25.549Z,20.06
2022-09-26T10:40:18.760Z,20.02
2022-09-26T10:42:47.279Z,19.86
2022-09-26T10:45:18.332Z,19.77
2022-09-26T10:48:22.172Z,19.74
2022-09-26T10:51:08.506Z,19.71
2022-09-26T10:53:43.290Z,19.66
2022-09-26T10:56:14.636Z,19.59
2022-09-26T10:58:43.163Z,19.39
2022-09-26T11:01:20.645Z,19.23
2022-09-26T11:03:49.828Z,19.21
2022-09-26T11:06:35.837Z,19.26
2022-09-26T11:09:13.937Z,19.19
2022-09-26T11:12:20.389Z,19.12
2022-09-26T11:14:47.029Z,19.04
2022-09-26T11:20:09.535Z,18.94
2022-09-26T11:22:44.795Z,19.10
2022-09-26T11:25:25.441Z,19.19
2022-09-26T11:28:07.848Z,19.33
2022-09-26T11:31:01.960Z,19.64
2022-09-26T11:33:33.732Z,19.98
2022-09-26T11:36:41.916Z,20.25
2022-09-26T11:39:22.638Z,20.51
2022-09-26T11:42:01.444Z,20.71
2022-09-26T11:44:29.310Z,20.83
2022-09-26T11:47:31.370Z,20.72
2022-09-26T11:50:05.599Z,20.62
2022-09-26T11:52:49.340Z,20.47
2022-09-26T11:55:40.793Z,20.30
2022-09-26T11:58:15.267Z,20.11
2022-09-26T12:00:41.947Z,19.94
2022-09-26T12:03:27.890Z,19.84
2022-09-26T12:06:02.283Z,19.73
2022-09-26T12:08:52.099Z,19.63
2022-09-26T12:11:22.731Z,19.63
2022-09-26T12:13:56.295Z,19.75
2022-09-26T12:16:35.956Z,19.97
2022-09-26T12:19:20.544Z,20.28
2022-09-26T12:22:07.117Z,20.55
2022-09-26T12:24:43.423Z,20.79
2022-09-26T12:27:37.132Z,20.96
2022-09-26T12:30:16.899Z,21.04
2022-09-26T12:32:47.127Z,21.01
2022-09-26T12:35:31.952Z,20.91
2022-09-26T12:38:18.825Z,20.83
2022-09-26T12:40:53.661Z,20.65
2022-09-26T12:43:26.753Z,20.48
2022-09-26T12:45:57.173Z,20.26
2022-09-26T12:48:31.266Z,20.10
2022-09-26T12:51:12.903Z,19.92
2022-09-26T12:53:39.493Z,19.83
2022-09-26T12:56:09.305Z,19.80
2022-09-26T12:58:48.888Z,19.79
2022-09-26T13:01:18.664Z,19.82
2022-09-26T13:03:47.895Z,19.87
2022-09-26T13:06:37.406Z,19.93
2022-09-26T13:09:16.071Z,20.00
2022-09-26T13:11:58.103Z,20.09
2022-09-26T13:14:27.368Z,20.15
2022-09-26T13:17:13.504Z,20.07
2022-09-26T13:19:43.540Z,19.99
2022-09-26T13:22:34.817Z,19.86
2022-09-26T13:25:08.206Z,19.83
2022-09-26T13:27:40.716Z,19.98
2022-09-26T13:30:17.080Z,20.13
2022-09-26T13:32:55.922Z,20.24
2022-09-26T13:35:27.353Z,20.21
2022-09-26T13:38:02.234Z,20.14
2022-09-26T13:40:37.718Z,20.12
2022-09-26T13:43:12.164Z,20.10
2022-09-26T13:45:50.620Z,20.08
2022-09-26T13:48:29.142Z,20.05
2022-09-26T13:50:58.231Z,20.00
2022-09-26T13:53:24.883Z,19.88
2022-09-26T13:56:10.586Z,19.79
2022-09-26T13:58:40.228Z,19.70
2022-09-26T14:01:27.368Z,19.63
2022-09-26T14:04:12.941Z,19.55
2022-09-26T14:07:00.849Z,19.49
2022-09-26T14:09:39.789Z,19.55
2022-09-26T14:12:31.202Z,19.63
2022-09-26T14:15:16.215Z,19.66
2022-09-26T14:17:42.974Z,19.74
2022-09-26T14:20:27.374Z,19.78
2022-09-26T14:22:55.621Z,19.88
2022-09-26T14:25:40.795Z,19.95
2022-09-26T14:28:31.862Z,19.93
2022-09-26T14:31:17.446Z,19.87
2022-09-26T14:33:45.446Z,19.84
2022-09-26T14:36:30.921Z,19.73
2022-09-26T14:38:57.683Z,19.45
2022-09-26T14:41:27.652Z,19.24
2022-09-26T14:43:59.060Z,19.17
2022-09-26T14:46:26.183Z,19.12
2022-09-26T14:49:01.881Z,19.05
2022-09-26T14:51:30.918Z,19.04
2022-09-26T14:54:00.521Z,18.96
2022-09-26T14:56:32.637Z,18.99
2022-09-26T14:59:18.061Z,18.97
2022-09-26T15:01:45.127Z,18.96
2022-09-26T15:04:24.996Z,18.96
2022-09-26T15:06:52.955Z,18.96
2022-09-26T15:09:38.448Z,18.95
2022-09-26T15:12:10.135Z,18.97
2022-09-26T15:15:02.607Z,19.00
2022-09-26T15:17:35.455Z,18.97
2022-09-26T15:20:06.438Z,18.99
2022-09-26T15:22:34.105Z,19.03
2022-09-26T15:25:27.025Z,19.02
2022-09-26T15:27:54.695Z,19.01
2022-09-26T15:30:24.880Z,18.98
2022-09-26T15:32:56.948Z,18.89
2022-09-26T15:35:23.923Z,18.82
2022-09-26T15:37:50.592Z,18.76
2022-09-26T15:40:24.934Z,18.72
2022-09-26T15:43:08.029Z,18.68
2022-09-26T15:45:55.454Z,18.62
2022-09-26T15:48:24.852Z,18.55
2022-09-26T15:51:06.913Z,18.48
2022-09-26T15:53:33.548Z,18.41
2022-09-26T15:56:02.177Z,18.34
2022-09-26T15:58:31.445Z,18.28
2022-09-26T16:00:58.166Z,18.21
2022-09-26T16:03:27.334Z,18.13
2022-09-26T16:05:54.766Z,18.05
2022-09-26T16:08:23.648Z,17.96
2022-09-26T16:10:54.783Z,17.90
2022-09-26T16:13:25.428Z,17.83
2022-09-26T16:16:02.970Z,17.75
2022-09-26T16:18:39.991Z,17.69
2022-09-26T16:21:16.905Z,17.62
2022-09-26T16:23:54.016Z,17.57
2022-09-26T16:26:21.757Z,17.51
2022-09-26T16:28:52.858Z,17.45
2022-09-26T16:31:24.513Z,17.41
2022-09-26T16:33:52.928Z,17.38
2022-09-26T16:36:21.084Z,17.38
2022-09-26T16:38:58.677Z,17.38
2022-09-26T16:41:59.505Z,17.41
2022-09-26T16:44:28.850Z,17.46
2022-09-26T16:47:00.271Z,17.48
2022-09-26T16:49:39.975Z,17.50
2022-09-26T16:52:30.088Z,17.50
2022-09-26T16:55:01.315Z,17.50
2022-09-26T16:57:32.277Z,17.48
2022-09-26T17:00:18.755Z,17.46
2022-09-26T17:02:45.764Z,17.43
2022-09-26T17:05:20.847Z,17.41
2022-09-26T17:07:48.696Z,17.38
2022-09-26T17:10:16.134Z,17.35
2022-09-26T17:12:42.910Z,17.34
2022-09-26T17:15:17.472Z,17.32
2022-09-26T17:17:44.045Z,17.30
2022-09-26T17:20:12.486Z,17.25
2022-09-26T17:22:39.253Z,17.20
2022-09-26T17:25:06.951Z,17.16
2022-09-26T17:27:36.055Z,17.13
2022-09-26T17:30:03.829Z,17.08
2022-09-26T17:32:32.774Z,17.04
2022-09-26T17:35:01.194Z,16.98
2022-09-26T17:37:30.013Z,16.92
2022-09-26T17:39:57.013Z,16.87
2022-09-26T17:42:24.222Z,16.81
2022-09-26T17:44:51.159Z,16.75
2022-09-26T17:47:18.778Z,16.69
2022-09-26T17:49:48.458Z,16.61
2022-09-26T17:52:25.904Z,16.56
2022-09-26T17:54:55.854Z,16.48
2022-09-26T17:57:24.711Z,16.40
2022-09-26T18:00:18.099Z,16.33
2022-09-26T18:03:00.612Z,16.28
2022-09-26T18:05:32.448Z,16.23
2022-09-26T18:08:03.076Z,16.23
2022-09-26T18:10:33.193Z,16.23
2022-09-26T18:13:01.106Z,16.21
2022-09-26T18:15:27.981Z,16.21
2022-09-26T18:17:54.841Z,16.21
2022-09-26T18:20:33.188Z,16.21
2022-09-26T18:22:59.944Z,16.22
2022-09-26T18:25:26.624Z,16.22
2022-09-26T18:27:54.855Z,16.21
2022-09-26T18:30:21.718Z,16.21
2022-09-26T18:32:54.052Z,16.21
2022-09-26T18:35:25.033Z,16.21
2022-09-26T18:37:54.565Z,16.19
2022-09-26T18:40:22.713Z,16.19
2022-09-26T18:42:49.405Z,16.17
2022-09-26T18:45:19.605Z,16.17
2022-09-26T18:47:46.271Z,16.15
2022-09-26T18:50:21.520Z,16.12
2022-09-26T18:52:48.299Z,16.08
2022-09-26T18:55:38.182Z,16.01
2022-09-26T18:58:23.662Z,15.96
2022-09-26T19:00:54.518Z,15.88
2022-09-26T19:03:22.283Z,15.82
2022-09-26T19:05:52.625Z,15.75
2022-09-26T19:08:33.588Z,15.70
2022-09-26T19:11:03.926Z,15.66
2022-09-26T19:13:31.388Z,15.62
2022-09-26T19:15:58.171Z,15.49
2022-09-26T19:18:24.848Z,15.57
2022-09-26T19:20:51.434Z,15.52
2022-09-26T19:23:18.113Z,15.44
2022-09-26T19:25:44.701Z,15.46
2022-09-26T19:28:13.804Z,15.47
2022-09-26T19:30:40.516Z,15.49
2022-09-26T19:33:10.237Z,15.51
2022-09-26T19:35:41.042Z,15.54
2022-09-26T19:38:22.142Z,15.54
2022-09-26T19:40:49.485Z,15.54
2022-09-26T19:43:16.654Z,15.55
2022-09-26T19:45:44.183Z,15.53
2022-09-26T19:48:15.860Z,15.52
2022-09-26T19:50:43.267Z,15.55
2022-09-26T19:53:12.936Z,15.56
2022-09-26T19:55:39.621Z,15.53
2022-09-26T19:58:16.766Z,15.52
2022-09-26T20:00:44.874Z,15.57
2022-09-26T20:03:16.052Z,15.59
2022-09-26T20:05:42.725Z,15.60
2022-09-26T20:08:20.530Z,15.63
2022-09-26T20:10:48.102Z,15.66
2022-09-26T20:13:15.370Z,15.67
2022-09-26T20:15:42.313Z,15.67
2022-09-26T20:18:12.800Z,15.65
2022-09-26T20:20:39.650Z,15.66
2022-09-26T20:23:13.274Z,15.69
2022-09-26T20:25:39.929Z,15.69
2022-09-26T20:28:06.488Z,15.67
2022-09-26T20:30:51.605Z,15.67
2022-09-26T20:33:21.816Z,15.69
2022-09-26T20:36:13.412Z,15.69
2022-09-26T20:38:41.223Z,15.70
2022-09-26T20:41:13.461Z,15.72
2022-09-26T20:43:41.794Z,15.73
2022-09-26T20:46:09.106Z,15.73
2022-09-26T20:48:37.163Z,15.74
2022-09-26T20:51:07.342Z,15.73
2022-09-26T20:53:33.922Z,15.72
2022-09-26T20:56:00.623Z,15.66
2022-09-26T20:58:27.187Z,15.63
2022-09-26T21:00:53.767Z,15.62
2022-09-26T21:03:25.224Z,15.60
2022-09-26T21:05:52.258Z,15.60
2022-09-26T21:08:18.809Z,15.57
2022-09-26T21:10:45.385Z,15.57
2022-09-26T21:13:11.986Z,15.57
2022-09-26T21:15:41.496Z,15.58
2022-09-26T21:18:10.565Z,15.54
2022-09-26T21:20:37.228Z,15.56
2022-09-26T21:23:24.139Z,15.56
2022-09-26T21:25:50.780Z,15.58
2022-09-26T21:28:27.738Z,15.59
2022-09-26T21:30:59.092Z,15.59
2022-09-26T21:33:25.836Z,15.57
2022-09-26T21:35:52.858Z,15.55
2022-09-26T21:38:20.332Z,15.53
2022-09-26T21:40:49.606Z,15.50
2022-09-26T21:43:18.231Z,15.44
2022-09-26T21:45:45.722Z,15.43
2022-09-26T21:48:13.589Z,15.42
2022-09-26T21:50:42.040Z,15.43
2022-09-26T21:53:10.778Z,15.44
2022-09-26T21:55:40.137Z,15.41
2022-09-26T21:58:13.097Z,15.38
2022-09-26T22:00:40.008Z,15.37
2022-09-26T22:03:07.098Z,15.35
2022-09-26T22:05:33.746Z,15.35
2022-09-26T22:08:00.602Z,15.35
2022-09-26T22:10:29.427Z,15.34
2022-09-26T22:12:56.228Z,15.33
2022-09-26T22:18:13.190Z,15.30
2022-09-26T22:20:39.932Z,15.30
2022-09-26T22:23:06.516Z,15.30
2022-09-26T22:25:33.944Z,15.28
2022-09-26T22:28:00.669Z,15.29
2022-09-26T22:30:27.622Z,15.28
2022-09-26T22:32:54.218Z,15.28
2022-09-26T22:35:22.018Z,15.28
2022-09-26T22:37:48.698Z,15.28
2022-09-26T22:40:15.301Z,15.25
2022-09-26T22:42:42.042Z,15.26
2022-09-26T22:45:09.046Z,15.25
2022-09-26T22:47:35.683Z,15.23
2022-09-26T22:50:02.319Z,15.20
2022-09-26T22:52:29.794Z,15.19
2022-09-26T22:54:57.285Z,15.12
2022-09-26T22:57:24.353Z,15.08
2022-09-26T22:59:50.996Z,15.06
2022-09-26T23:02:17.709Z,15.04
2022-09-26T23:04:47.474Z,15.01
2022-09-26T23:07:15.174Z,14.99
2022-09-26T23:09:41.803Z,14.97
2022-09-26T23:12:08.484Z,14.87
2022-09-26T23:14:35.195Z,14.77
2022-09-26T23:17:02.124Z,14.70
2022-09-26T23:19:28.851Z,14.66
2022-09-26T23:21:56.498Z,14.67
2022-09-26T23:24:23.119Z,14.66
2022-09-26T23:26:49.732Z,14.65
2022-09-26T23:29:16.470Z,14.59
2022-09-26T23:31:43.272Z,14.52
2022-09-26T23:34:09.907Z,14.45
2022-09-26T23:36:36.539Z,14.39
2022-09-26T23:39:03.249Z,14.42
2022-09-26T23:41:29.917Z,14.47
2022-09-26T23:43:56.573Z,14.47
2022-09-26T23:46:23.262Z,14.57
2022-09-26T23:48:50.057Z,14.57
2022-09-26T23:51:16.702Z,14.55
2022-09-26T23:53:43.262Z,14.55
2022-09-26T23:56:10.801Z,14.51
2022-09-26T23:58:37.590Z,14.46
